Hagerstown Regional Richard A Henson Field
KHGR : now visible

Airfield :











YOU CAN JOIN US ON...

 
LOGIN :

Register | Disclaimer

   EN    FR    IT 

 









Legend :    VFR   Marginal VFR   IFR   Intensive IFR   Very Intensive IFR
Visi :
Ceiling :
>= 8 km
>= 3000ft
5 to 8 km
1000 to 3000 ft
1500m to 5 km
500 to 1000 ft
800 to 1500m
200 to 500 ft
< 800m
< 200 ft
Symbols :   Thunderstorms  Fog  Heavy snow  Heavy precipitations  Wind > 20 kt






- Airport Elevation : 703 ft
- IATA code : HGR


KHGR - Hagerstown Regional Richard A Henson Field

CURRENT METAR :
  • 142017Z 24008KT 10SM SCT002 06/04 A2934 RMK AO2 T00610039

EXPIRED METARs :
  • 141953Z 23009KT 8SM OVC003 04/03 A2933 RMK AO2 RAE17 SLP945 P0001 T00440033
  • 141853Z 22006KT 10SM -RA BKN003 BKN060 OVC075 04/03 A2932 RMK AO2 SLP943 P0001 T00390028
  • 141753Z 20007KT 6SM -RA BR OVC003 04/02 A2934 RMK AO2 SLP948 P0006 60039 T00390022 10039 20017 56020

TAF N/A



MET'MAP, your aeronautical weather chart ! - Copyright ORBIFLY December 2007 - Disclaimer

ORBIFLY MET'MAP TEAM :

Programming & Development : Alexandra Zaïnal
Concept & original design : Baudouin d'Aumeries
Assistance for programming : Marc-Olivier Méhu
Technical & hardware support : Manuel Goepfert

Contact : metmap@orbifly.com




SOURCES & CREDITS :

   NOAA       Earth
Advisory